Dades meteomassalio
Diari Summary for Febrer 10, 2017 Units:  English    Metric   Both
« Previous Day
Next Day »
Diari Semanal Mensual Anual Personalitzat
  Maxima: Minima: Mijana:
Temperatura: TemperatureC °F -0.9 °F 5.4 °F
Rosada: DewpointC °F -2.2 °F 1.8 °F
Humitat: Humidity % 52 % 79 %
Velocitat del vent: WindSpeedKMH mph 0.0 mph 3.4 mph
Racha vent: WindSpeedGustKMH mph - -
Vent:- - SE
Pressio: PressurehPa in 1014.8 in -
Pluja: 0.0 in    
Historical Graphs
 
 
Tabular Data for Febrer 10, 2017
Time Temperature Dew Point Pressure Wind Wind Speed Wind Gust Humidity Rainfall Rate (Hourly) solar Conditions
TemperatureC °F DewpointC °F PressurehPa in Calm     Humidity % HourlyPrecipMM in SolarRadiationWatts/m^2 W/m2 Conditions
00:00 3.1 °F 0.4 °F 1016.5 in Calm     83 % 0.0 in 0.0 W/m2 CLR
00:05 3.0 °F 0.4 °F 1016.5 in Calm     83 % 0.0 in 0.0 W/m2 CLR
00:10 2.9 °F 0.4 °F 1016.5 in Calm     84 % 0.0 in 0.0 W/m2 CLR
00:15 2.8 °F 0.4 °F 1016.5 in Calm     84 % 0.0 in 0.0 W/m2 CLR
00:20 2.7 °F 0.3 °F 1016.5 in Calm     84 % 0.0 in 0.0 W/m2 CLR
00:25 2.6 °F 0.3 °F 1016.5 in Calm     85 % 0.0 in 0.0 W/m2 CLR
00:30 2.5 °F 0.2 °F 1016.5 in Calm     85 % 0.0 in 0.0 W/m2 CLR
00:35 2.4 °F 0.1 °F 1016.5 in Calm     85 % 0.0 in 0.0 W/m2 CLR
00:40 2.3 °F 0.2 °F 1016.5 in Calm     86 % 0.0 in 0.0 W/m2 CLR
00:45 2.2 °F 0.1 °F 1016.5 in Calm     86 % 0.0 in 0.0 W/m2 CLR
00:50 2.1 °F 0.0 °F 1016.5 in Calm     86 % 0.0 in 0.0 W/m2 CLR
00:55 2.0 °F -0.1 °F 1016.5 in Calm     86 % 0.0 in 0.0 W/m2 CLR
01:00 1.9 °F -0.1 °F 1016.1 in Calm     87 % 0.0 in 0.0 W/m2 CLR
01:05 1.8 °F -0.2 °F 1016.1 in Calm     87 % 0.0 in 0.0 W/m2 CLR
01:10 1.7 °F -0.2 °F 1016.1 in Calm     87 % 0.0 in 0.0 W/m2 CLR
01:15 1.6 °F -0.3 °F 1016.1 in Calm     87 % 0.0 in 0.0 W/m2 CLR
01:21 1.6 °F -0.2 °F 1016.1 in Calm     88 % 0.0 in 0.0 W/m2 CLR
01:26 1.6 °F -0.2 °F 1016.1 in Calm     88 % 0.0 in 0.0 W/m2 CLR
01:31 1.4 °F -0.3 °F 1015.8 in Calm     88 % 0.0 in 0.0 W/m2 CLR
01:36 1.4 °F -0.4 °F 1015.8 in Calm     88 % 0.0 in 0.0 W/m2 CLR
01:41 1.3 °F -0.3 °F 1015.8 in Calm     89 % 0.0 in 0.0 W/m2 CLR
01:46 1.4 °F -0.2 °F 1015.8 in Calm     89 % 0.0 in 0.0 W/m2 CLR
01:51 1.4 °F -0.2 °F 1015.8 in Calm     89 % 0.0 in 0.0 W/m2 CLR
01:56 1.4 °F -0.2 °F 1015.8 in Calm     89 % 0.0 in 0.0 W/m2 CLR
02:01 1.3 °F -0.3 °F 1015.8 in Calm     89 % 0.0 in 0.0 W/m2 CLR
02:06 1.3 °F -0.3 °F 1015.8 in Calm     89 % 0.0 in 0.0 W/m2 CLR
02:11 1.3 °F -0.3 °F 1015.8 in Calm     89 % 0.0 in 0.0 W/m2 CLR
02:16 1.3 °F -0.3 °F 1015.8 in Calm     89 % 0.0 in 0.0 W/m2 CLR
02:21 1.3 °F -0.3 °F 1015.8 in Calm     89 % 0.0 in 0.0 W/m2 CLR
02:26 1.3 °F -0.1 °F 1015.8 in Calm     90 % 0.0 in 0.0 W/m2 CLR
02:31 1.3 °F -0.3 °F 1015.8 in Calm     89 % 0.0 in 0.0 W/m2 CLR
02:41 1.2 °F -0.4 °F 1015.8 in Calm     89 % 0.0 in 0.0 W/m2 CLR
02:46 1.2 °F -0.4 °F 1015.8 in Calm     89 % 0.0 in 0.0 W/m2 CLR
02:49 1.2 °F -0.4 °F 1016.1 in Calm     89 % 0.0 in 0.0 W/m2 CLR
02:54 1.1 °F -0.5 °F 1016.1 in Calm     89 % 0.0 in 0.0 W/m2 CLR
02:59 1.1 °F -0.3 °F 1016.1 in Calm     90 % 0.0 in 0.0 W/m2 CLR
03:04 1.1 °F -0.4 °F 1016.1 in Calm     90 % 0.0 in 0.0 W/m2 CLR
03:09 1.1 °F -0.4 °F 1016.1 in Calm     90 % 0.0 in 0.0 W/m2 CLR
03:12 1.1 °F -0.3 °F 1016.1 in Calm     90 % 0.0 in 0.0 W/m2 CLR
03:17 1.1 °F -0.3 °F 1016.1 in Calm     90 % 0.0 in 0.0 W/m2 CLR
03:22 1.2 °F -0.4 °F 1016.1 in Calm     89 % 0.0 in 0.0 W/m2 CLR
03:27 1.1 °F -0.6 °F 1015.8 in Calm     89 % 0.0 in 0.0 W/m2 CLR
03:32 0.9 °F -0.7 °F 1015.8 in Calm     89 % 0.0 in 0.0 W/m2 CLR
03:37 0.8 °F -0.8 °F 1015.8 in Calm     89 % 0.0 in 0.0 W/m2 CLR
03:38 0.8 °F -0.8 °F 1015.8 in Calm     89 % 0.0 in 0.0 W/m2 CLR
03:43 0.6 °F -1.1 °F 1015.8 in Calm     89 % 0.0 in 0.0 W/m2 CLR
03:48 0.6 °F -0.9 °F 1015.8 in Calm     90 % 0.0 in 0.0 W/m2 CLR
03:53 0.6 °F -0.9 °F 1015.8 in Calm     90 % 0.0 in 0.0 W/m2 CLR
03:58 0.5 °F -0.9 °F 1015.8 in Calm     90 % 0.0 in 0.0 W/m2 CLR
04:03 0.4 °F -1.0 °F 1015.8 in Calm     90 % 0.0 in 0.0 W/m2 CLR
04:08 0.4 °F -1.1 °F 1015.8 in Calm     90 % 0.0 in 0.0 W/m2 CLR
04:13 0.2 °F -1.4 °F 1015.8 in Calm     89 % 0.0 in 0.0 W/m2 CLR
04:18 0.1 °F -1.3 °F 1015.5 in Calm     90 % 0.0 in 0.0 W/m2 CLR
04:23 0.1 °F -1.3 °F 1015.5 in Calm     90 % 0.0 in 0.0 W/m2 CLR
04:28 -0.1 °F -1.5 °F 1015.8 in Calm     90 % 0.0 in 0.0 W/m2 CLR
04:33 -0.2 °F -1.7 °F 1015.8 in Calm     90 % 0.0 in 0.0 W/m2 CLR
04:38 -0.2 °F -1.6 °F 1015.5 in Calm     90 % 0.0 in 0.0 W/m2 CLR
04:43 -0.2 °F -1.7 °F 1015.8 in Calm     90 % 0.0 in 0.0 W/m2 CLR
04:48 -0.3 °F -1.7 °F 1015.5 in Calm     90 % 0.0 in 0.0 W/m2 CLR
04:53 -0.4 °F -1.8 °F 1015.8 in Calm     90 % 0.0 in 0.0 W/m2 CLR
04:58 -0.4 °F -1.9 °F 1015.8 in Calm     90 % 0.0 in 0.0 W/m2 CLR
05:03 -0.6 °F -2.0 °F 1015.5 in Calm     90 % 0.0 in 0.0 W/m2 CLR
05:08 -0.6 °F -2.1 °F 1015.5 in Calm     90 % 0.0 in 0.0 W/m2 CLR
05:13 -0.6 °F -2.1 °F 1015.5 in Calm     90 % 0.0 in 0.0 W/m2 CLR
05:18 -0.7 °F -1.9 °F 1015.5 in Calm     91 % 0.0 in 0.0 W/m2 CLR
05:23 -0.8 °F -2.1 °F 1015.5 in Calm     91 % 0.0 in 0.0 W/m2 CLR
05:28 -0.8 °F -2.1 °F 1015.5 in Calm     91 % 0.0 in 0.0 W/m2 CLR
05:33 -0.8 °F -2.1 °F 1015.5 in Calm     91 % 0.0 in 0.0 W/m2 CLR
05:38 -0.8 °F -2.1 °F 1015.5 in Calm     91 % 0.0 in 0.0 W/m2 CLR
05:43 -0.9 °F -2.2 °F 1015.5 in Calm     91 % 0.0 in 0.0 W/m2 CLR
05:48 -0.9 °F -2.2 °F 1015.5 in Calm     91 % 0.0 in 0.0 W/m2 CLR
05:53 -0.9 °F -2.2 °F 1015.5 in Calm     91 % 0.0 in 0.0 W/m2 CLR
05:58 -0.9 °F -2.2 °F 1015.5 in Calm     91 % 0.0 in 0.0 W/m2 CLR
06:03 -0.8 °F -2.1 °F 1015.1 in Calm     91 % 0.0 in 0.0 W/m2 CLR
06:08 -0.8 °F -2.1 °F 1015.1 in Calm     91 % 0.0 in 0.0 W/m2 CLR
06:13 -0.8 °F -2.1 °F 1015.1 in Calm     91 % 0.0 in 0.0 W/m2 CLR
06:18 -0.8 °F -2.1 °F 1015.1 in Calm     91 % 0.0 in 0.0 W/m2 CLR
06:23 -0.7 °F -1.9 °F 1015.1 in Calm     91 % 0.0 in 0.0 W/m2 CLR
06:28 -0.6 °F -1.9 °F 1015.1 in Calm     91 % 0.0 in 0.0 W/m2 CLR
06:33 -0.6 °F -1.9 °F 1015.1 in Calm     91 % 0.0 in 0.0 W/m2 CLR
06:38 -0.6 °F -1.8 °F 1015.1 in Calm     91 % 0.0 in 0.0 W/m2 CLR
06:43 -0.6 °F -1.9 °F 1015.1 in Calm     91 % 0.0 in 0.0 W/m2 CLR
06:48 -0.6 °F -1.9 °F 1015.5 in Calm     91 % 0.0 in 0.0 W/m2 CLR
06:53 -0.6 °F -1.8 °F 1015.5 in Calm     91 % 0.0 in 0.0 W/m2 CLR
06:58 -0.6 °F -1.8 °F 1015.5 in Calm     91 % 0.0 in 0.0 W/m2 CLR
07:03 -0.6 °F -1.8 °F 1015.5 in Calm     91 % 0.0 in 0.0 W/m2 CLR
07:09 -0.5 °F -1.8 °F 1015.5 in Calm     91 % 0.0 in 0.0 W/m2 CLR
07:14 -0.6 °F -2.0 °F 1015.5 in Calm     90 % 0.0 in 0.0 W/m2 CLR
07:19 -0.6 °F -1.9 °F 1015.5 in Calm     91 % 0.0 in 0.0 W/m2 CLR
07:24 -0.6 °F -1.8 °F 1015.5 in Calm     91 % 0.0 in 0.0 W/m2 CLR
07:29 -0.5 °F -1.9 °F 1015.5 in Calm     90 % 0.0 in 0.0 W/m2 CLR
07:34 -0.5 °F -1.9 °F 1015.5 in Calm     90 % 0.0 in 0.0 W/m2 CLR
07:39 -0.5 °F -1.9 °F 1015.5 in Calm     90 % 0.0 in 0.0 W/m2 CLR
07:44 -0.4 °F -1.9 °F 1015.8 in Calm     90 % 0.0 in 0.0 W/m2 CLR
07:49 -0.4 °F -1.9 °F 1015.8 in Calm     90 % 0.0 in 0.0 W/m2 CLR
07:54 -0.4 °F -1.9 °F 1015.8 in Calm     90 % 0.0 in 0.0 W/m2 CLR
07:59 -0.5 °F -1.9 °F 1015.8 in Calm     90 % 0.0 in 0.0 W/m2 CLR
08:04 -0.6 °F -2.1 °F 1016.1 in Calm     90 % 0.0 in 5.0 W/m2 OVC
08:09 -0.7 °F -2.1 °F 1016.1 in Calm     90 % 0.0 in 5.0 W/m2 OVC
08:14 -0.7 °F -2.1 °F 1016.1 in Calm     90 % 0.0 in 9.0 W/m2 BKN
08:19 -0.7 °F -2.2 °F 1016.1 in Calm     90 % 0.0 in 12.0 W/m2 BKN
08:24 -0.7 °F -2.2 °F 1016.1 in Calm     90 % 0.0 in 18.0 W/m2 BKN
08:28 -0.7 °F -2.2 °F 1016.5 in Calm     90 % 0.0 in 21.0 W/m2 BKN
08:33 -0.7 °F -1.9 °F 1016.5 in Calm     91 % 0.0 in 28.0 W/m2 BKN
08:38 -0.7 °F -1.9 °F 1016.5 in Calm     91 % 0.0 in 35.0 W/m2 BKN
08:43 -0.6 °F -1.9 °F 1016.5 in Calm     91 % 0.0 in 44.0 W/m2 BKN
08:48 -0.6 °F -1.8 °F 1016.5 in Calm     91 % 0.0 in 51.0 W/m2 SCT
08:53 -0.4 °F -1.7 °F 1016.5 in Calm     91 % 0.0 in 62.0 W/m2 SCT
08:58 -0.3 °F -1.6 °F 1016.5 in Calm     91 % 0.0 in 79.0 W/m2 FEW
09:03 -0.2 °F -1.5 °F 1016.5 in Calm     91 % 0.0 in 91.0 W/m2 FEW
09:08 0.0 °F -1.3 °F 1016.5 in Calm     91 % 0.0 in 84.0 W/m2 CLR
09:13 0.1 °F -1.2 °F 1016.5 in Calm     91 % 0.0 in 93.0 W/m2 CLR
09:18 0.2 °F -1.1 °F 1016.5 in Calm     91 % 0.0 in 98.0 W/m2 CLR
09:23 0.4 °F -0.9 °F 1016.5 in Calm     91 % 0.0 in 111.0 W/m2 CLR
09:28 0.6 °F -0.9 °F 1016.5 in Calm     90 % 0.0 in 118.0 W/m2 CLR
09:33 0.8 °F -0.7 °F 1016.5 in Calm     90 % 0.0 in 128.0 W/m2 CLR
09:39 1.0 °F -0.4 °F 1016.5 in Calm     90 % 0.0 in 144.0 W/m2 CLR
09:44 1.2 °F -0.2 °F 1016.5 in Calm     90 % 0.0 in 171.0 W/m2 CLR
09:49 1.4 °F 0.0 °F 1016.5 in Calm     90 % 0.0 in 223.0 W/m2 CLR
09:54 1.7 °F 0.1 °F 1016.5 in Calm     89 % 0.0 in 287.0 W/m2 CLR
09:59 2.1 °F 0.7 °F 1016.5 in Calm     90 % 0.0 in 288.0 W/m2 CLR
10:04 2.8 °F 1.2 °F 1016.5 in Calm     89 % 0.0 in 274.0 W/m2 CLR
10:09 3.3 °F 1.3 °F 1016.5 in Calm     87 % 0.0 in 346.0 W/m2 CLR
10:14 3.7 °F 1.6 °F 1016.5 in Calm     86 % 0.0 in 318.0 W/m2 CLR
10:19 4.1 °F 1.8 °F 1016.8 in Calm     85 % 0.0 in 264.0 W/m2 CLR
10:24 4.6 °F 2.1 °F 1016.8 in Calm     84 % 0.0 in 253.0 W/m2 CLR
10:29 4.9 °F 2.1 °F 1016.8 in Calm     82 % 0.0 in 267.0 W/m2 CLR
10:34 5.3 °F 2.4 °F 1016.8 in Calm     82 % 0.0 in 353.0 W/m2 CLR
10:39 5.9 °F 2.9 °F 1016.8 in Calm     81 % 0.0 in 309.0 W/m2 CLR
10:44 6.3 °F 3.1 °F 1016.8 in Calm     80 % 0.0 in 338.0 W/m2 CLR
10:49 6.8 °F 3.4 °F 1016.8 in Calm     79 % 0.0 in 387.0 W/m2 CLR
10:54 7.4 °F 3.8 °F 1016.8 in Calm     78 % 0.0 in 469.0 W/m2 CLR
10:59 8.1 °F 4.3 °F 1016.8 in Calm     77 % 0.0 in 406.0 W/m2 CLR
11:04 8.6 °F 4.4 °F 1016.8 in Calm     75 % 0.0 in 413.0 W/m2 CLR
11:09 9.1 °F 4.8 °F 1016.8 in Calm     75 % 0.0 in 348.0 W/m2 CLR
11:14 9.6 °F 5.2 °F 1016.8 in Calm     74 % 0.0 in 403.0 W/m2 CLR
11:19 9.9 °F 5.3 °F 1016.8 in Calm     73 % 0.0 in 415.0 W/m2 CLR
11:24 10.2 °F 5.3 °F 1016.8 in Calm     72 % 0.0 in 366.0 W/m2 CLR
11:29 10.4 °F 5.4 °F 1016.8 in Calm     71 % 0.0 in 350.0 W/m2 CLR
11:34 10.7 °F 5.4 °F 1016.8 in Calm     70 % 0.0 in 399.0 W/m2 CLR
11:39 10.8 °F 5.6 °F 1016.8 in Calm     70 % 0.0 in 445.0 W/m2 CLR
11:44 11.1 °F 5.8 °F 1016.8 in Calm     70 % 0.0 in 469.0 W/m2 CLR
11:49 11.4 °F 5.5 °F 1016.8 in Calm     67 % 0.0 in 410.0 W/m2 CLR
11:54 11.6 °F 5.4 °F 1016.8 in Calm     66 % 0.0 in 352.0 W/m2 CLR
11:59 11.7 °F 5.5 °F 1016.8 in Calm     66 % 0.0 in 413.0 W/m2 CLR
12:04 11.9 °F 5.5 °F 1016.8 in Calm     65 % 0.0 in 568.0 W/m2 CLR
12:09 12.3 °F 5.4 °F 1016.5 in ENE 8.0 mph 8.0 mph 63 % 0.0 in 490.0 W/m2 CLR
12:14 12.3 °F 5.2 °F 1016.5 in East 9.7 mph 9.7 mph 62 % 0.0 in 526.0 W/m2 CLR
12:19 12.3 °F 4.7 °F 1016.5 in East 3.7 mph 3.7 mph 60 % 0.0 in 584.0 W/m2 CLR
12:24 12.4 °F 4.9 °F 1016.1 in East 5.6 mph 5.6 mph 60 % 0.0 in 503.0 W/m2 CLR
12:29 12.4 °F 4.7 °F 1016.1 in East 5.6 mph 5.6 mph 59 % 0.0 in 457.0 W/m2 CLR
12:34 12.6 °F 4.3 °F 1016.1 in SE 7.4 mph 7.4 mph 57 % 0.0 in 492.0 W/m2 CLR
12:39 12.6 °F 3.8 °F 1016.1 in SSE 13.0 mph 13.0 mph 55 % 0.0 in 431.0 W/m2 CLR
12:44 12.6 °F 3.7 °F 1016.1 in SSE 22.2 mph 22.2 mph 55 % 0.0 in 443.0 W/m2 CLR
12:49 12.6 °F 4.3 °F 1016.1 in SSE 13.0 mph 13.0 mph 57 % 0.0 in 480.0 W/m2 CLR
12:54 12.5 °F 4.2 °F 1016.1 in SSE 11.3 mph 11.3 mph 57 % 0.0 in 496.0 W/m2 CLR
12:59 12.7 °F 4.4 °F 1016.1 in SSE 16.7 mph 16.7 mph 57 % 0.0 in 534.0 W/m2 CLR
13:04 12.7 °F 4.2 °F 1016.1 in SSE 19.3 mph 19.3 mph 56 % 0.0 in 577.0 W/m2 CLR
13:09 12.8 °F 4.4 °F 1016.1 in South 5.6 mph 5.6 mph 57 % 0.0 in 506.0 W/m2 CLR
13:14 13.1 °F 4.4 °F 1016.1 in South 16.7 mph 16.7 mph 56 % 0.0 in 522.0 W/m2 CLR
13:19 13.0 °F 4.2 °F 1015.8 in South 20.4 mph 20.4 mph 55 % 0.0 in 485.0 W/m2 CLR
13:24 12.9 °F 4.3 °F 1015.8 in South 13.0 mph 13.0 mph 56 % 0.0 in 517.0 W/m2 CLR
13:29 13.0 °F 4.2 °F 1015.8 in South 11.1 mph 11.1 mph 55 % 0.0 in 536.0 W/m2 CLR
13:34 12.9 °F 4.1 °F 1015.8 in South 11.1 mph 11.1 mph 55 % 0.0 in 489.0 W/m2 CLR
13:39 13.1 °F 4.2 °F 1015.8 in SSE 16.7 mph 16.7 mph 55 % 0.0 in 512.0 W/m2 CLR
13:44 13.1 °F 3.7 °F 1015.8 in SSE 11.1 mph 13.8 mph 53 % 0.0 in 524.0 W/m2 CLR
13:49 13.1 °F 3.7 °F 1015.8 in SSE 16.7 mph 16.7 mph 53 % 0.0 in 571.0 W/m2 CLR
13:54 13.1 °F 3.7 °F 1015.5 in South 24.1 mph 24.1 mph 53 % 0.0 in 320.0 W/m2 CLR
13:59 12.9 °F 3.6 °F 1015.5 in SSW 16.7 mph 16.7 mph 53 % 0.0 in 364.0 W/m2 CLR
14:04 13.0 °F 3.6 °F 1015.5 in South 14.8 mph 14.8 mph 53 % 0.0 in 387.0 W/m2 CLR
14:09 12.9 °F 3.6 °F 1015.5 in SE 16.7 mph 16.7 mph 53 % 0.0 in 396.0 W/m2 CLR
14:14 13.1 °F 3.7 °F 1015.5 in SE 11.1 mph 11.1 mph 53 % 0.0 in 455.0 W/m2 CLR
14:19 13.2 °F 3.5 °F 1015.5 in SSE 14.8 mph 14.8 mph 52 % 0.0 in 330.0 W/m2 CLR
14:24 12.9 °F 3.3 °F 1015.5 in SSE 17.7 mph 17.7 mph 52 % 0.0 in 253.0 W/m2 CLR
14:30 12.7 °F 3.1 °F 1015.5 in South 9.7 mph 9.7 mph 52 % 0.0 in 236.0 W/m2 CLR
14:35 12.6 °F 3.2 °F 1015.1 in SSE 9.3 mph 9.3 mph 53 % 0.0 in 260.0 W/m2 CLR
14:40 12.6 °F 3.5 °F 1015.1 in SSE 16.7 mph 16.7 mph 54 % 0.0 in 244.0 W/m2 CLR
14:45 12.5 °F 3.4 °F 1015.5 in South 14.8 mph 14.8 mph 54 % 0.0 in 237.0 W/m2 CLR
14:50 12.5 °F 3.7 °F 1015.5 in SSW 9.3 mph 9.3 mph 55 % 0.0 in 234.0 W/m2 CLR
14:55 12.4 °F 3.9 °F 1015.5 in South 8.0 mph 8.0 mph 56 % 0.0 in 223.0 W/m2 CLR
15:00 12.4 °F 3.8 °F 1015.1 in South 9.3 mph 9.3 mph 56 % 0.0 in 221.0 W/m2 CLR
15:05 12.3 °F 3.6 °F 1015.1 in South 14.5 mph 14.5 mph 55 % 0.0 in 211.0 W/m2 CLR
15:10 12.3 °F 3.8 °F 1015.5 in South 14.8 mph 14.8 mph 56 % 0.0 in 195.0 W/m2 CLR
15:15 12.3 °F 3.7 °F 1015.5 in South 13.0 mph 13.0 mph 56 % 0.0 in 183.0 W/m2 CLR
15:20 12.3 °F 4.7 °F 1015.5 in South 13.0 mph 13.0 mph 60 % 0.0 in 179.0 W/m2 CLR
15:25 12.1 °F 5.7 °F 1015.1 in SE 11.3 mph 11.3 mph 65 % 0.0 in 174.0 W/m2 CLR
15:30 11.7 °F 5.6 °F 1015.1 in ESE 14.8 mph 14.8 mph 66 % 0.0 in 172.0 W/m2 CLR
15:35 11.6 °F 5.7 °F 1015.1 in SE 18.5 mph 18.5 mph 67 % 0.0 in 171.0 W/m2 CLR
15:40 11.6 °F 5.6 °F 1015.1 in ESE 12.9 mph 12.9 mph 67 % 0.0 in 163.0 W/m2 CLR
15:45 11.5 °F 5.6 °F 1015.1 in ESE 13.0 mph 13.0 mph 67 % 0.0 in 183.0 W/m2 CLR
15:50 11.5 °F 5.6 °F 1015.1 in ESE 14.8 mph 14.8 mph 67 % 0.0 in 257.0 W/m2 CLR
15:55 11.6 °F 5.8 °F 1015.1 in ESE 14.5 mph 14.5 mph 68 % 0.0 in 279.0 W/m2 CLR
16:00 11.6 °F 5.9 °F 1014.8 in ESE 12.9 mph 12.9 mph 68 % 0.0 in 257.0 W/m2 CLR
16:05 11.6 °F 5.8 °F 1014.8 in ESE 13.0 mph 13.0 mph 68 % 0.0 in 213.0 W/m2 CLR
16:10 11.5 °F 5.8 °F 1015.1 in ESE 13.0 mph 13.0 mph 68 % 0.0 in 193.0 W/m2 CLR
16:15 11.6 °F 6.1 °F 1014.8 in ESE 5.6 mph 5.6 mph 69 % 0.0 in 274.0 W/m2 CLR
16:20 11.8 °F 6.1 °F 1015.1 in ESE 6.4 mph 6.4 mph 68 % 0.0 in 357.0 W/m2 CLR
16:25 11.9 °F 5.6 °F 1014.8 in SE 13.0 mph 13.0 mph 65 % 0.0 in 338.0 W/m2 CLR
16:30 12.1 °F 5.9 °F 1014.8 in SE 13.0 mph 13.0 mph 66 % 0.0 in 257.0 W/m2 CLR
16:35 11.9 °F 5.9 °F 1014.8 in ESE 7.4 mph 7.4 mph 67 % 0.0 in 209.0 W/m2 CLR
16:40 11.8 °F 5.7 °F 1014.8 in ESE 9.3 mph 9.3 mph 66 % 0.0 in 237.0 W/m2 CLR
16:45 11.8 °F 5.7 °F 1014.8 in ESE 11.1 mph 11.1 mph 66 % 0.0 in 183.0 W/m2 CLR
16:50 11.8 °F 5.6 °F 1014.8 in ESE 13.0 mph 13.0 mph 66 % 0.0 in 176.0 W/m2 CLR
16:55 11.7 °F 5.7 °F 1014.8 in ESE 8.0 mph 8.0 mph 67 % 0.0 in 174.0 W/m2 CLR
17:00 11.7 °F 5.7 °F 1014.8 in ESE 9.3 mph 9.3 mph 67 % 0.0 in 132.0 W/m2 CLR
17:05 11.6 °F 5.7 °F 1014.8 in ESE 13.0 mph 13.0 mph 67 % 0.0 in 174.0 W/m2 CLR
17:10 11.6 °F 5.8 °F 1014.8 in ESE 9.3 mph 9.3 mph 68 % 0.0 in 146.0 W/m2 CLR
17:15 11.4 °F 5.5 °F 1014.8 in ESE 6.4 mph 6.4 mph 67 % 0.0 in 84.0 W/m2 CLR
17:20 11.3 °F 5.6 °F 1014.8 in SE 11.1 mph 11.1 mph 68 % 0.0 in 79.0 W/m2 CLR
17:25 11.3 °F 5.4 °F 1014.8 in SE 6.4 mph 6.4 mph 67 % 0.0 in 114.0 W/m2 CLR
17:28 11.3 °F 5.6 °F 1015.1 in SE 13.0 mph 13.0 mph 68 % 0.0 in 109.0 W/m2 CLR
17:33 11.1 °F 5.6 °F 1015.1 in ESE 7.4 mph 7.4 mph 69 % 0.0 in 100.0 W/m2 CLR
17:38 11.0 °F 5.5 °F 1015.1 in ESE 8.0 mph 8.2 mph 69 % 0.0 in 70.0 W/m2 FEW
17:43 10.9 °F 5.4 °F 1015.1 in ESE 11.1 mph 11.1 mph 69 % 0.0 in 56.0 W/m2 SCT
17:48 10.8 °F 5.5 °F 1015.1 in ESE 9.3 mph 9.3 mph 70 % 0.0 in 58.0 W/m2 SCT
17:53 10.7 °F 5.4 °F 1015.1 in SE 8.0 mph 8.0 mph 70 % 0.0 in 47.0 W/m2 SCT
17:58 10.6 °F 5.4 °F 1015.1 in SE 4.8 mph 4.8 mph 70 % 0.0 in 35.0 W/m2 BKN
18:00 10.6 °F 5.5 °F 1015.5 in SE 6.4 mph 6.4 mph 71 % 0.0 in 30.0 W/m2 BKN
18:05 10.4 °F 5.2 °F 1015.5 in SE 9.3 mph 9.3 mph 70 % 0.0 in 23.0 W/m2 BKN
18:09 10.3 °F 5.1 °F 1015.5 in SE 9.3 mph 9.3 mph 70 % 0.0 in 19.0 W/m2 BKN
18:11 10.3 °F 5.1 °F 1015.5 in ESE 7.4 mph 7.4 mph 70 % 0.0 in 18.0 W/m2 BKN
18:14 10.2 °F 5.2 °F 1015.5 in ESE 8.0 mph 8.0 mph 71 % 0.0 in 14.0 W/m2 BKN
18:16 10.2 °F 5.2 °F 1015.5 in ESE 9.3 mph 9.3 mph 71 % 0.0 in 14.0 W/m2 BKN
18:21 10.1 °F 5.2 °F 1015.8 in ESE 11.1 mph 11.1 mph 72 % 0.0 in 9.0 W/m2 BKN
18:25 9.9 °F 5.1 °F 1015.8 in SE 7.4 mph 7.4 mph 72 % 0.0 in 5.0 W/m2 OVC
18:28 9.8 °F 5.2 °F 1015.8 in SE 7.4 mph 7.4 mph 73 % 0.0 in 0.0 W/m2 OVC
18:30 9.7 °F 5.1 °F 1015.8 in SE 9.3 mph 9.3 mph 73 % 0.0 in 0.0 W/m2 OVC
18:35 9.6 °F 4.9 °F 1015.8 in SE 5.6 mph 5.6 mph 73 % 0.0 in 0.0 W/m2 OVC
18:40 9.4 °F 5.0 °F 1015.8 in SE 5.6 mph 5.6 mph 74 % 0.0 in 0.0 W/m2 CLR
18:45 9.3 °F 4.9 °F 1015.8 in SE 1.9 mph   74 % 0.0 in 0.0 W/m2 CLR
18:48 9.2 °F 4.8 °F 1015.8 in Calm     74 % 0.0 in 0.0 W/m2 CLR
18:50 9.1 °F 4.9 °F 1015.8 in ESE 5.6 mph 5.6 mph 75 % 0.0 in 0.0 W/m2 CLR
18:55 9.0 °F 4.8 °F 1015.8 in Calm     75 % 0.0 in 0.0 W/m2 CLR
19:00 8.8 °F 4.7 °F 1015.8 in SE 5.6 mph 5.6 mph 75 % 0.0 in 0.0 W/m2 CLR
19:05 8.7 °F 4.7 °F 1015.8 in Calm     76 % 0.0 in 0.0 W/m2 CLR
19:10 8.6 °F 4.6 °F 1016.1 in Calm     76 % 0.0 in 0.0 W/m2 CLR
19:15 8.4 °F 4.7 °F 1016.1 in SSE 4.8 mph 4.8 mph 77 % 0.0 in 0.0 W/m2 CLR
19:20 8.3 °F 4.6 °F 1016.1 in SE 5.6 mph 5.6 mph 77 % 0.0 in 0.0 W/m2 CLR
19:25 8.3 °F 4.7 °F 1016.1 in ESE 1.9 mph 1.9 mph 78 % 0.0 in 0.0 W/m2 CLR
19:30 8.2 °F 4.6 °F 1016.5 in ESE 5.6 mph 5.6 mph 78 % 0.0 in 0.0 W/m2 CLR
19:35 8.2 °F 4.6 °F 1016.5 in SE 5.6 mph 5.6 mph 78 % 0.0 in 0.0 W/m2 CLR
19:40 8.1 °F 4.5 °F 1016.5 in SE 3.7 mph 3.7 mph 78 % 0.0 in 0.0 W/m2 CLR
19:45 8.0 °F 4.4 °F 1016.5 in Calm     78 % 0.0 in 0.0 W/m2 CLR
19:50 7.8 °F 4.4 °F 1016.5 in ESE 3.7 mph 3.7 mph 79 % 0.0 in 0.0 W/m2 CLR
19:55 7.7 °F 4.3 °F 1016.5 in ESE 3.7 mph 3.7 mph 79 % 0.0 in 0.0 W/m2 CLR
20:00 7.4 °F 4.2 °F 1016.5 in Calm     80 % 0.0 in 0.0 W/m2 CLR
20:05 7.3 °F 4.1 °F 1016.8 in Calm     80 % 0.0 in 0.0 W/m2 CLR
20:11 7.2 °F 4.2 °F 1016.5 in Calm     81 % 0.0 in 0.0 W/m2 CLR
20:16 7.1 °F 4.1 °F 1016.5 in Calm     81 % 0.0 in 0.0 W/m2 CLR
20:20 7.1 °F 4.0 °F 1016.8 in Calm     81 % 0.0 in 0.0 W/m2 CLR
20:26 6.9 °F 3.8 °F 1016.5 in Calm     81 % 0.0 in 0.0 W/m2 CLR
20:31 6.8 °F 3.8 °F 1016.8 in Calm     81 % 0.0 in 0.0 W/m2 CLR
20:36 6.8 °F 3.7 °F 1016.8 in Calm     81 % 0.0 in 0.0 W/m2 CLR
20:41 6.7 °F 3.7 °F 1016.8 in Calm     81 % 0.0 in 0.0 W/m2 CLR
20:46 6.7 °F 3.6 °F 1016.8 in Calm     81 % 0.0 in 0.0 W/m2 CLR
20:51 6.6 °F 3.7 °F 1016.8 in Calm     82 % 0.0 in 0.0 W/m2 CLR
20:56 6.4 °F 3.4 °F 1016.8 in Calm     81 % 0.0 in 0.0 W/m2 CLR
21:01 6.2 °F 3.2 °F 1017.2 in Calm     81 % 0.0 in 0.0 W/m2 CLR
21:06 5.8 °F 2.9 °F 1017.2 in Calm     82 % 0.0 in 0.0 W/m2 CLR
21:11 5.6 °F 3.1 °F 1017.2 in Calm     84 % 0.0 in 0.0 W/m2 CLR
21:16 5.5 °F 3.0 °F 1017.2 in Calm     84 % 0.0 in 0.0 W/m2 CLR
21:21 5.3 °F 2.8 °F 1017.2 in Calm     84 % 0.0 in 0.0 W/m2 CLR
21:26 5.1 °F 2.6 °F 1017.5 in Calm     84 % 0.0 in 0.0 W/m2 CLR
21:31 4.9 °F 2.6 °F 1017.5 in Calm     85 % 0.0 in 0.0 W/m2 CLR
21:36 4.9 °F 2.7 °F 1017.5 in Calm     86 % 0.0 in 0.0 W/m2 CLR
21:41 4.9 °F 2.7 °F 1017.5 in Calm     86 % 0.0 in 0.0 W/m2 CLR
21:46 4.7 °F 2.6 °F 1017.5 in Calm     86 % 0.0 in 0.0 W/m2 CLR
21:51 4.4 °F 2.2 °F 1017.5 in Calm     85 % 0.0 in 0.0 W/m2 CLR
21:56 4.2 °F 1.9 °F 1017.5 in Calm     85 % 0.0 in 0.0 W/m2 CLR
22:01 4.0 °F 1.9 °F 1017.5 in Calm     86 % 0.0 in 0.0 W/m2 CLR
22:06 4.0 °F 2.1 °F 1017.5 in Calm     87 % 0.0 in 0.0 W/m2 CLR
22:11 4.0 °F 2.2 °F 1017.5 in Calm     88 % 0.0 in 0.0 W/m2 CLR
22:16 3.7 °F 1.6 °F 1017.5 in Calm     86 % 0.0 in 0.0 W/m2 CLR
22:21 3.4 °F 1.5 °F 1017.5 in Calm     87 % 0.0 in 0.0 W/m2 CLR
22:26 3.2 °F 1.3 °F 1017.5 in Calm     87 % 0.0 in 0.0 W/m2 CLR
22:31 3.1 °F 1.3 °F 1017.5 in Calm     88 % 0.0 in 0.0 W/m2 CLR
22:36 3.1 °F 1.3 °F 1017.5 in Calm     88 % 0.0 in 0.0 W/m2 CLR
22:41 2.9 °F 1.3 °F 1017.8 in Calm     89 % 0.0 in 0.0 W/m2 CLR
22:46 2.8 °F 1.0 °F 1017.8 in Calm     88 % 0.0 in 0.0 W/m2 CLR
22:51 2.8 °F 1.2 °F 1017.8 in Calm     89 % 0.0 in 0.0 W/m2 CLR
22:56 2.8 °F 1.2 °F 1017.8 in Calm     89 % 0.0 in 0.0 W/m2 CLR
23:01 2.6 °F 0.9 °F 1017.8 in Calm     89 % 0.0 in 0.0 W/m2 CLR
23:06 2.3 °F 0.7 °F 1017.8 in Calm     89 % 0.0 in 0.0 W/m2 CLR
23:11 2.1 °F 0.5 °F 1017.8 in Calm     89 % 0.0 in 0.0 W/m2 CLR
23:16 1.9 °F 0.3 °F 1017.8 in Calm     89 % 0.0 in 0.0 W/m2 CLR
23:21 1.9 °F 0.4 °F 1017.8 in Calm     90 % 0.0 in 0.0 W/m2 CLR
23:26 1.9 °F 0.4 °F 1017.8 in Calm     90 % 0.0 in 0.0 W/m2 CLR
23:31 1.8 °F 0.4 °F 1017.8 in Calm     90 % 0.0 in 0.0 W/m2 CLR
23:36 1.8 °F 0.3 °F 1017.8 in Calm     90 % 0.0 in 0.0 W/m2 CLR
23:41 1.7 °F 0.2 °F 1017.8 in Calm     90 % 0.0 in 0.0 W/m2 CLR
23:46 1.6 °F 0.1 °F 1017.8 in Calm     90 % 0.0 in 0.0 W/m2 CLR
23:51 1.6 °F 0.1 °F 1017.8 in Calm     90 % 0.0 in 0.0 W/m2 CLR
23:57 1.4 °F 0.0 °F 1018.2 in Calm     90 % 0.0 in 0.0 W/m2 CLR
Lo Temps de Massalio
Compliments of Weather Underground - 1.25 mb